sensor_id;sensor_type;location;lat;lon;timestamp;P1;durP1;ratioP1;P2;durP2;ratioP2
42978;SDS011;28616;44.746;19.678;2023-03-31T00:00:35;8.82;;;3.90;;
42978;SDS011;28616;44.746;19.678;2023-03-31T00:03:01;13.40;;;4.45;;
42978;SDS011;28616;44.746;19.678;2023-03-31T00:05:26;14.38;;;4.60;;
42978;SDS011;28616;44.746;19.678;2023-03-31T00:07:56;10.82;;;3.42;;
42978;SDS011;28616;44.746;19.678;2023-03-31T00:10:34;12.30;;;4.32;;
42978;SDS011;28616;44.746;19.678;2023-03-31T00:13:00;10.88;;;4.25;;
42978;SDS011;28616;44.746;19.678;2023-03-31T00:15:26;14.07;;;3.60;;
42978;SDS011;28616;44.746;19.678;2023-03-31T00:17:53;11.70;;;4.20;;
42978;SDS011;28616;44.746;19.678;2023-03-31T00:20:19;10.35;;;4.10;;
42978;SDS011;28616;44.746;19.678;2023-03-31T00:22:45;9.88;;;3.60;;
42978;SDS011;28616;44.746;19.678;2023-03-31T00:25:14;10.30;;;3.90;;
42978;SDS011;28616;44.746;19.678;2023-03-31T00:27:41;9.10;;;4.10;;
42978;SDS011;28616;44.746;19.678;2023-03-31T00:30:08;7.03;;;3.70;;
42978;SDS011;28616;44.746;19.678;2023-03-31T00:32:34;8.98;;;3.58;;
42978;SDS011;28616;44.746;19.678;2023-03-31T00:35:00;8.95;;;3.85;;
42978;SDS011;28616;44.746;19.678;2023-03-31T00:37:26;17.10;;;7.28;;
42978;SDS011;28616;44.746;19.678;2023-03-31T00:39:53;11.57;;;4.10;;
42978;SDS011;28616;44.746;19.678;2023-03-31T00:42:20;13.00;;;3.53;;
42978;SDS011;28616;44.746;19.678;2023-03-31T00:48:25;11.00;;;4.50;;
42978;SDS011;28616;44.746;19.678;2023-03-31T00:50:36;10.18;;;4.97;;
42978;SDS011;28616;44.746;19.678;2023-03-31T00:53:11;10.27;;;4.88;;
42978;SDS011;28616;44.746;19.678;2023-03-31T00:55:44;12.93;;;6.22;;
42978;SDS011;28616;44.746;19.678;2023-03-31T00:58:14;17.38;;;7.43;;
42978;SDS011;28616;44.746;19.678;2023-03-31T01:00:45;14.70;;;5.88;;
42978;SDS011;28616;44.746;19.678;2023-03-31T01:03:17;17.25;;;6.18;;
42978;SDS011;28616;44.746;19.678;2023-03-31T01:06:07;13.75;;;4.40;;
42978;SDS011;28616;44.746;19.678;2023-03-31T01:08:34;16.42;;;4.15;;
42978;SDS011;28616;44.746;19.678;2023-03-31T01:11:05;9.90;;;3.20;;
42978;SDS011;28616;44.746;19.678;2023-03-31T01:16:00;6.93;;;2.72;;
42978;SDS011;28616;44.746;19.678;2023-03-31T01:18:26;9.57;;;2.70;;
42978;SDS011;28616;44.746;19.678;2023-03-31T01:28:54;10.45;;;3.42;;
42978;SDS011;28616;44.746;19.678;2023-03-31T01:45:55;9.07;;;2.60;;
42978;SDS011;28616;44.746;19.678;2023-03-31T01:48:30;6.43;;;2.55;;
42978;SDS011;28616;44.746;19.678;2023-03-31T01:51:15;6.40;;;2.22;;
42978;SDS011;28616;44.746;19.678;2023-03-31T01:56:38;10.10;;;2.15;;
42978;SDS011;28616;44.746;19.678;2023-03-31T02:01:43;5.95;;;1.77;;
42978;SDS011;28616;44.746;19.678;2023-03-31T02:04:23;6.20;;;1.50;;
42978;SDS011;28616;44.746;19.678;2023-03-31T02:06:55;7.32;;;2.15;;
42978;SDS011;28616;44.746;19.678;2023-03-31T02:09:30;6.95;;;1.65;;
42978;SDS011;28616;44.746;19.678;2023-03-31T02:14:28;4.15;;;1.90;;
42978;SDS011;28616;44.746;19.678;2023-03-31T02:16:56;6.28;;;1.73;;
42978;SDS011;28616;44.746;19.678;2023-03-31T02:19:24;2.85;;;1.45;;
42978;SDS011;28616;44.746;19.678;2023-03-31T02:21:53;7.90;;;2.20;;
42978;SDS011;28616;44.746;19.678;2023-03-31T02:24:20;6.65;;;2.33;;
42978;SDS011;28616;44.746;19.678;2023-03-31T02:27:00;8.10;;;2.50;;
42978;SDS011;28616;44.746;19.678;2023-03-31T02:29:30;7.30;;;2.50;;
42978;SDS011;28616;44.746;19.678;2023-03-31T02:32:30;8.07;;;2.22;;
42978;SDS011;28616;44.746;19.678;2023-03-31T02:34:50;5.45;;;2.40;;
42978;SDS011;28616;44.746;19.678;2023-03-31T02:37:17;8.18;;;2.42;;
42978;SDS011;28616;44.746;19.678;2023-03-31T02:39:44;5.60;;;2.67;;
42978;SDS011;28616;44.746;19.678;2023-03-31T02:42:12;9.93;;;2.67;;
42978;SDS011;28616;44.746;19.678;2023-03-31T02:44:38;8.70;;;2.50;;
42978;SDS011;28616;44.746;19.678;2023-03-31T02:47:05;10.57;;;2.03;;
42978;SDS011;28616;44.746;19.678;2023-03-31T02:49:34;7.07;;;2.63;;
42978;SDS011;28616;44.746;19.678;2023-03-31T02:52:21;4.22;;;1.88;;
42978;SDS011;28616;44.746;19.678;2023-03-31T02:58:20;7.63;;;2.25;;
42978;SDS011;28616;44.746;19.678;2023-03-31T03:07:04;7.88;;;2.83;;
42978;SDS011;28616;44.746;19.678;2023-03-31T03:09:31;7.50;;;2.00;;
42978;SDS011;28616;44.746;19.678;2023-03-31T03:15:03;6.63;;;2.40;;
42978;SDS011;28616;44.746;19.678;2023-03-31T03:17:41;7.35;;;2.10;;
42978;SDS011;28616;44.746;19.678;2023-03-31T03:22:36;9.60;;;3.00;;
42978;SDS011;28616;44.746;19.678;2023-03-31T03:25:06;10.18;;;3.65;;
42978;SDS011;28616;44.746;19.678;2023-03-31T03:27:33;7.57;;;3.40;;
42978;SDS011;28616;44.746;19.678;2023-03-31T03:30:00;9.73;;;3.60;;
42978;SDS011;28616;44.746;19.678;2023-03-31T03:32:30;7.40;;;3.30;;
42978;SDS011;28616;44.746;19.678;2023-03-31T03:34:57;12.20;;;3.75;;
42978;SDS011;28616;44.746;19.678;2023-03-31T03:37:24;15.20;;;4.10;;
42978;SDS011;28616;44.746;19.678;2023-03-31T03:39:50;11.95;;;4.22;;
42978;SDS011;28616;44.746;19.678;2023-03-31T03:42:16;12.77;;;4.63;;
42978;SDS011;28616;44.746;19.678;2023-03-31T03:44:41;10.48;;;3.80;;
42978;SDS011;28616;44.746;19.678;2023-03-31T03:47:07;14.20;;;5.25;;
42978;SDS011;28616;44.746;19.678;2023-03-31T03:49:33;8.80;;;4.90;;
42978;SDS011;28616;44.746;19.678;2023-03-31T03:51:58;8.07;;;2.78;;
42978;SDS011;28616;44.746;19.678;2023-03-31T03:54:24;9.55;;;3.42;;
42978;SDS011;28616;44.746;19.678;2023-03-31T03:56:50;26.67;;;12.82;;
42978;SDS011;28616;44.746;19.678;2023-03-31T03:59:16;34.72;;;16.83;;
42978;SDS011;28616;44.746;19.678;2023-03-31T04:01:42;24.35;;;11.35;;
42978;SDS011;28616;44.746;19.678;2023-03-31T04:04:07;19.02;;;8.90;;
42978;SDS011;28616;44.746;19.678;2023-03-31T04:06:33;16.52;;;7.57;;
42978;SDS011;28616;44.746;19.678;2023-03-31T04:08:59;12.65;;;5.97;;
42978;SDS011;28616;44.746;19.678;2023-03-31T04:11:25;13.00;;;6.60;;
42978;SDS011;28616;44.746;19.678;2023-03-31T04:13:52;16.00;;;6.35;;
42978;SDS011;28616;44.746;19.678;2023-03-31T04:16:17;10.27;;;5.15;;
42978;SDS011;28616;44.746;19.678;2023-03-31T04:18:43;13.77;;;6.00;;
42978;SDS011;28616;44.746;19.678;2023-03-31T04:21:10;10.80;;;5.03;;
42978;SDS011;28616;44.746;19.678;2023-03-31T04:23:39;21.73;;;6.88;;
42978;SDS011;28616;44.746;19.678;2023-03-31T04:26:12;29.83;;;10.77;;
42978;SDS011;28616;44.746;19.678;2023-03-31T04:28:39;45.70;;;17.30;;
42978;SDS011;28616;44.746;19.678;2023-03-31T04:31:10;66.32;;;38.63;;
42978;SDS011;28616;44.746;19.678;2023-03-31T04:33:39;36.63;;;17.02;;
42978;SDS011;28616;44.746;19.678;2023-03-31T04:36:05;39.40;;;20.77;;
42978;SDS011;28616;44.746;19.678;2023-03-31T04:38:44;30.75;;;15.65;;
42978;SDS011;28616;44.746;19.678;2023-03-31T04:41:12;37.72;;;16.73;;
42978;SDS011;28616;44.746;19.678;2023-03-31T04:43:38;38.03;;;16.42;;
42978;SDS011;28616;44.746;19.678;2023-03-31T04:46:04;37.45;;;15.57;;
42978;SDS011;28616;44.746;19.678;2023-03-31T04:48:30;37.78;;;14.00;;
42978;SDS011;28616;44.746;19.678;2023-03-31T04:50:55;35.03;;;15.75;;
42978;SDS011;28616;44.746;19.678;2023-03-31T04:53:21;31.83;;;12.43;;
42978;SDS011;28616;44.746;19.678;2023-03-31T04:55:48;37.70;;;16.38;;
42978;SDS011;28616;44.746;19.678;2023-03-31T04:58:14;39.65;;;19.08;;
42978;SDS011;28616;44.746;19.678;2023-03-31T05:00:40;42.33;;;18.45;;
42978;SDS011;28616;44.746;19.678;2023-03-31T05:03:06;42.80;;;19.48;;
42978;SDS011;28616;44.746;19.678;2023-03-31T05:05:33;46.15;;;19.13;;
42978;SDS011;28616;44.746;19.678;2023-03-31T05:07:59;50.47;;;21.08;;
42978;SDS011;28616;44.746;19.678;2023-03-31T05:10:24;47.28;;;21.10;;
42978;SDS011;28616;44.746;19.678;2023-03-31T05:12:50;47.20;;;22.10;;
42978;SDS011;28616;44.746;19.678;2023-03-31T05:15:16;58.58;;;23.20;;
42978;SDS011;28616;44.746;19.678;2023-03-31T05:17:42;90.13;;;33.20;;
42978;SDS011;28616;44.746;19.678;2023-03-31T05:20:08;68.20;;;26.67;;
42978;SDS011;28616;44.746;19.678;2023-03-31T05:22:35;58.10;;;24.50;;
42978;SDS011;28616;44.746;19.678;2023-03-31T05:25:03;58.13;;;22.35;;
42978;SDS011;28616;44.746;19.678;2023-03-31T05:27:30;44.67;;;21.00;;
42978;SDS011;28616;44.746;19.678;2023-03-31T05:29:56;32.65;;;12.25;;
42978;SDS011;28616;44.746;19.678;2023-03-31T05:32:22;35.50;;;12.07;;
42978;SDS011;28616;44.746;19.678;2023-03-31T05:34:48;35.35;;;13.63;;
42978;SDS011;28616;44.746;19.678;2023-03-31T05:37:17;43.95;;;17.80;;
42978;SDS011;28616;44.746;19.678;2023-03-31T05:39:44;56.78;;;22.02;;
42978;SDS011;28616;44.746;19.678;2023-03-31T05:42:10;62.38;;;26.70;;
42978;SDS011;28616;44.746;19.678;2023-03-31T05:44:36;28.17;;;12.15;;
42978;SDS011;28616;44.746;19.678;2023-03-31T05:47:01;27.83;;;10.27;;
42978;SDS011;28616;44.746;19.678;2023-03-31T05:49:27;26.27;;;12.18;;
42978;SDS011;28616;44.746;19.678;2023-03-31T05:51:53;30.42;;;13.93;;
42978;SDS011;28616;44.746;19.678;2023-03-31T05:54:20;32.35;;;15.60;;
42978;SDS011;28616;44.746;19.678;2023-03-31T05:56:46;39.33;;;17.85;;
42978;SDS011;28616;44.746;19.678;2023-03-31T05:59:12;32.60;;;12.68;;
42978;SDS011;28616;44.746;19.678;2023-03-31T06:01:38;27.67;;;11.15;;
42978;SDS011;28616;44.746;19.678;2023-03-31T06:04:05;19.45;;;8.50;;
42978;SDS011;28616;44.746;19.678;2023-03-31T06:06:30;35.92;;;9.75;;
42978;SDS011;28616;44.746;19.678;2023-03-31T06:08:59;18.50;;;8.18;;
42978;SDS011;28616;44.746;19.678;2023-03-31T06:11:25;24.67;;;8.15;;
42978;SDS011;28616;44.746;19.678;2023-03-31T06:13:51;22.10;;;7.13;;
42978;SDS011;28616;44.746;19.678;2023-03-31T06:16:17;18.50;;;5.60;;
42978;SDS011;28616;44.746;19.678;2023-03-31T06:18:43;15.48;;;5.65;;
42978;SDS011;28616;44.746;19.678;2023-03-31T06:21:14;13.20;;;4.97;;
42978;SDS011;28616;44.746;19.678;2023-03-31T06:23:41;12.40;;;4.87;;
42978;SDS011;28616;44.746;19.678;2023-03-31T06:26:17;23.60;;;6.63;;
42978;SDS011;28616;44.746;19.678;2023-03-31T06:28:43;9.43;;;4.18;;
42978;SDS011;28616;44.746;19.678;2023-03-31T06:31:11;8.85;;;2.63;;
42978;SDS011;28616;44.746;19.678;2023-03-31T06:33:39;16.38;;;5.45;;
42978;SDS011;28616;44.746;19.678;2023-03-31T06:36:06;13.45;;;5.15;;
42978;SDS011;28616;44.746;19.678;2023-03-31T06:38:32;14.57;;;3.25;;
42978;SDS011;28616;44.746;19.678;2023-03-31T06:41:00;9.30;;;3.42;;
42978;SDS011;28616;44.746;19.678;2023-03-31T06:43:26;8.65;;;2.85;;
42978;SDS011;28616;44.746;19.678;2023-03-31T06:45:52;8.88;;;3.15;;
42978;SDS011;28616;44.746;19.678;2023-03-31T06:48:18;12.85;;;3.72;;
42978;SDS011;28616;44.746;19.678;2023-03-31T06:50:44;13.73;;;4.47;;
42978;SDS011;28616;44.746;19.678;2023-03-31T06:53:10;12.05;;;4.40;;
42978;SDS011;28616;44.746;19.678;2023-03-31T06:55:36;13.63;;;3.92;;
42978;SDS011;28616;44.746;19.678;2023-03-31T06:58:02;7.30;;;3.45;;
42978;SDS011;28616;44.746;19.678;2023-03-31T07:00:30;14.30;;;4.53;;
42978;SDS011;28616;44.746;19.678;2023-03-31T07:02:57;5.80;;;3.08;;
42978;SDS011;28616;44.746;19.678;2023-03-31T07:05:23;9.82;;;3.78;;
42978;SDS011;28616;44.746;19.678;2023-03-31T07:07:58;9.27;;;2.70;;
42978;SDS011;28616;44.746;19.678;2023-03-31T07:10:26;7.00;;;3.17;;
42978;SDS011;28616;44.746;19.678;2023-03-31T07:12:52;15.32;;;3.17;;
42978;SDS011;28616;44.746;19.678;2023-03-31T07:15:18;8.73;;;2.67;;
42978;SDS011;28616;44.746;19.678;2023-03-31T07:17:44;8.50;;;2.17;;
42978;SDS011;28616;44.746;19.678;2023-03-31T07:20:14;10.63;;;2.67;;
42978;SDS011;28616;44.746;19.678;2023-03-31T07:22:45;7.15;;;1.75;;
42978;SDS011;28616;44.746;19.678;2023-03-31T07:25:14;7.22;;;2.67;;
42978;SDS011;28616;44.746;19.678;2023-03-31T07:27:41;7.63;;;3.47;;
42978;SDS011;28616;44.746;19.678;2023-03-31T07:30:08;7.93;;;3.30;;
42978;SDS011;28616;44.746;19.678;2023-03-31T07:32:39;4.95;;;2.40;;
42978;SDS011;28616;44.746;19.678;2023-03-31T07:35:06;17.15;;;2.72;;
42978;SDS011;28616;44.746;19.678;2023-03-31T07:37:39;5.30;;;2.13;;
42978;SDS011;28616;44.746;19.678;2023-03-31T07:40:09;4.53;;;2.08;;
42978;SDS011;28616;44.746;19.678;2023-03-31T07:42:37;5.57;;;2.05;;
42978;SDS011;28616;44.746;19.678;2023-03-31T07:45:03;7.50;;;2.40;;
42978;SDS011;28616;44.746;19.678;2023-03-31T07:47:32;8.55;;;2.42;;
42978;SDS011;28616;44.746;19.678;2023-03-31T07:49:58;6.32;;;2.55;;
42978;SDS011;28616;44.746;19.678;2023-03-31T07:52:23;8.63;;;1.95;;
42978;SDS011;28616;44.746;19.678;2023-03-31T07:54:49;7.85;;;2.75;;
42978;SDS011;28616;44.746;19.678;2023-03-31T07:57:15;10.77;;;3.58;;
42978;SDS011;28616;44.746;19.678;2023-03-31T07:59:44;8.20;;;2.45;;
42978;SDS011;28616;44.746;19.678;2023-03-31T08:02:14;9.05;;;1.98;;
42978;SDS011;28616;44.746;19.678;2023-03-31T08:04:41;7.60;;;2.30;;
42978;SDS011;28616;44.746;19.678;2023-03-31T08:07:08;12.75;;;2.33;;
42978;SDS011;28616;44.746;19.678;2023-03-31T08:09:35;9.15;;;2.70;;
42978;SDS011;28616;44.746;19.678;2023-03-31T08:12:02;13.88;;;2.53;;
42978;SDS011;28616;44.746;19.678;2023-03-31T08:14:28;8.02;;;3.40;;
42978;SDS011;28616;44.746;19.678;2023-03-31T08:16:54;9.50;;;3.15;;
42978;SDS011;28616;44.746;19.678;2023-03-31T08:19:21;10.15;;;2.10;;
42978;SDS011;28616;44.746;19.678;2023-03-31T08:21:48;10.13;;;2.63;;
42978;SDS011;28616;44.746;19.678;2023-03-31T08:24:15;8.88;;;2.65;;
42978;SDS011;28616;44.746;19.678;2023-03-31T08:26:41;5.35;;;2.40;;
42978;SDS011;28616;44.746;19.678;2023-03-31T08:29:06;7.57;;;2.22;;
42978;SDS011;28616;44.746;19.678;2023-03-31T08:31:32;6.90;;;2.35;;
42978;SDS011;28616;44.746;19.678;2023-03-31T08:33:58;5.00;;;1.95;;
42978;SDS011;28616;44.746;19.678;2023-03-31T08:36:24;9.07;;;3.22;;
42978;SDS011;28616;44.746;19.678;2023-03-31T08:38:51;10.02;;;2.78;;
42978;SDS011;28616;44.746;19.678;2023-03-31T08:44:34;5.70;;;2.38;;
42978;SDS011;28616;44.746;19.678;2023-03-31T08:47:23;11.07;;;3.08;;
42978;SDS011;28616;44.746;19.678;2023-03-31T08:49:55;6.72;;;2.75;;
42978;SDS011;28616;44.746;19.678;2023-03-31T08:52:25;8.05;;;3.22;;
42978;SDS011;28616;44.746;19.678;2023-03-31T08:54:58;9.95;;;4.55;;
42978;SDS011;28616;44.746;19.678;2023-03-31T08:57:39;14.25;;;3.22;;
42978;SDS011;28616;44.746;19.678;2023-03-31T09:00:16;9.88;;;2.53;;
42978;SDS011;28616;44.746;19.678;2023-03-31T09:03:17;9.60;;;2.78;;
42978;SDS011;28616;44.746;19.678;2023-03-31T09:08:38;9.35;;;2.58;;
42978;SDS011;28616;44.746;19.678;2023-03-31T09:22:10;6.80;;;2.22;;
42978;SDS011;28616;44.746;19.678;2023-03-31T09:24:45;8.23;;;2.58;;
42978;SDS011;28616;44.746;19.678;2023-03-31T09:27:12;9.68;;;2.60;;
42978;SDS011;28616;44.746;19.678;2023-03-31T09:29:54;13.85;;;3.38;;
42978;SDS011;28616;44.746;19.678;2023-03-31T09:32:27;6.68;;;2.60;;
42978;SDS011;28616;44.746;19.678;2023-03-31T09:35:05;15.60;;;3.70;;
42978;SDS011;28616;44.746;19.678;2023-03-31T09:37:42;12.30;;;3.97;;
42978;SDS011;28616;44.746;19.678;2023-03-31T09:40:12;10.35;;;2.67;;
42978;SDS011;28616;44.746;19.678;2023-03-31T09:42:58;13.38;;;4.63;;
42978;SDS011;28616;44.746;19.678;2023-03-31T09:45:26;10.18;;;4.60;;
42978;SDS011;28616;44.746;19.678;2023-03-31T09:47:55;12.98;;;4.95;;
42978;SDS011;28616;44.746;19.678;2023-03-31T09:50:23;13.73;;;4.03;;
42978;SDS011;28616;44.746;19.678;2023-03-31T09:52:57;7.20;;;2.63;;
42978;SDS011;28616;44.746;19.678;2023-03-31T09:55:31;7.65;;;2.85;;
42978;SDS011;28616;44.746;19.678;2023-03-31T09:58:01;9.30;;;2.72;;
42978;SDS011;28616;44.746;19.678;2023-03-31T10:00:27;7.10;;;2.95;;
42978;SDS011;28616;44.746;19.678;2023-03-31T10:02:53;11.20;;;2.80;;
42978;SDS011;28616;44.746;19.678;2023-03-31T10:05:22;6.97;;;3.08;;
42978;SDS011;28616;44.746;19.678;2023-03-31T10:07:48;8.07;;;3.85;;
42978;SDS011;28616;44.746;19.678;2023-03-31T10:10:24;8.20;;;3.80;;
42978;SDS011;28616;44.746;19.678;2023-03-31T10:12:54;13.70;;;3.35;;
42978;SDS011;28616;44.746;19.678;2023-03-31T10:15:21;7.88;;;2.30;;
42978;SDS011;28616;44.746;19.678;2023-03-31T10:17:50;6.55;;;3.50;;
42978;SDS011;28616;44.746;19.678;2023-03-31T10:20:22;13.10;;;3.90;;
42978;SDS011;28616;44.746;19.678;2023-03-31T10:22:52;6.85;;;2.35;;
42978;SDS011;28616;44.746;19.678;2023-03-31T10:25:20;11.13;;;2.10;;
42978;SDS011;28616;44.746;19.678;2023-03-31T10:27:47;8.93;;;2.05;;
42978;SDS011;28616;44.746;19.678;2023-03-31T10:30:17;6.05;;;2.75;;
42978;SDS011;28616;44.746;19.678;2023-03-31T10:32:46;7.28;;;2.20;;
42978;SDS011;28616;44.746;19.678;2023-03-31T10:37:44;5.53;;;2.67;;
42978;SDS011;28616;44.746;19.678;2023-03-31T10:42:38;7.20;;;2.40;;
42978;SDS011;28616;44.746;19.678;2023-03-31T10:47:38;9.35;;;2.15;;
42978;SDS011;28616;44.746;19.678;2023-03-31T10:50:08;4.40;;;2.30;;
42978;SDS011;28616;44.746;19.678;2023-03-31T10:52:42;6.38;;;2.33;;
42978;SDS011;28616;44.746;19.678;2023-03-31T10:55:11;7.88;;;2.80;;
42978;SDS011;28616;44.746;19.678;2023-03-31T10:57:49;6.20;;;2.45;;
42978;SDS011;28616;44.746;19.678;2023-03-31T11:00:40;8.48;;;2.78;;
42978;SDS011;28616;44.746;19.678;2023-03-31T11:03:26;9.32;;;1.88;;
42978;SDS011;28616;44.746;19.678;2023-03-31T11:14:14;6.47;;;1.83;;
42978;SDS011;28616;44.746;19.678;2023-03-31T11:29:34;8.70;;;3.45;;
42978;SDS011;28616;44.746;19.678;2023-03-31T11:32:12;6.10;;;2.70;;
42978;SDS011;28616;44.746;19.678;2023-03-31T11:42:18;7.07;;;2.10;;
42978;SDS011;28616;44.746;19.678;2023-03-31T11:44:49;4.68;;;2.40;;
42978;SDS011;28616;44.746;19.678;2023-03-31T11:47:27;13.80;;;3.13;;
42978;SDS011;28616;44.746;19.678;2023-03-31T11:49:56;10.13;;;2.30;;
42978;SDS011;28616;44.746;19.678;2023-03-31T11:52:28;8.15;;;2.70;;
42978;SDS011;28616;44.746;19.678;2023-03-31T11:55:05;4.68;;;1.83;;
42978;SDS011;28616;44.746;19.678;2023-03-31T12:00:26;15.15;;;5.57;;
42978;SDS011;28616;44.746;19.678;2023-03-31T12:02:54;11.00;;;3.25;;
42978;SDS011;28616;44.746;19.678;2023-03-31T12:05:22;6.95;;;3.28;;
42978;SDS011;28616;44.746;19.678;2023-03-31T12:15:42;7.47;;;2.85;;
42978;SDS011;28616;44.746;19.678;2023-03-31T12:18:19;8.77;;;4.00;;
42978;SDS011;28616;44.746;19.678;2023-03-31T12:20:49;7.35;;;3.00;;
42978;SDS011;28616;44.746;19.678;2023-03-31T12:23:21;7.75;;;3.40;;
42978;SDS011;28616;44.746;19.678;2023-03-31T12:26:10;6.93;;;2.65;;
42978;SDS011;28616;44.746;19.678;2023-03-31T12:28:37;11.55;;;3.83;;
42978;SDS011;28616;44.746;19.678;2023-03-31T12:31:05;10.65;;;3.33;;
42978;SDS011;28616;44.746;19.678;2023-03-31T12:33:33;8.27;;;3.30;;
42978;SDS011;28616;44.746;19.678;2023-03-31T12:36:10;5.68;;;1.80;;
42978;SDS011;28616;44.746;19.678;2023-03-31T12:49:14;5.90;;;1.83;;
42978;SDS011;28616;44.746;19.678;2023-03-31T12:57:03;5.38;;;2.80;;
42978;SDS011;28616;44.746;19.678;2023-03-31T12:59:33;12.48;;;2.20;;
42978;SDS011;28616;44.746;19.678;2023-03-31T13:04:41;5.72;;;2.60;;
42978;SDS011;28616;44.746;19.678;2023-03-31T13:07:11;7.43;;;2.70;;
42978;SDS011;28616;44.746;19.678;2023-03-31T13:09:39;11.55;;;4.05;;
42978;SDS011;28616;44.746;19.678;2023-03-31T13:12:07;9.35;;;1.85;;
42978;SDS011;28616;44.746;19.678;2023-03-31T13:14:37;4.90;;;2.22;;
42978;SDS011;28616;44.746;19.678;2023-03-31T13:19:36;3.97;;;2.08;;
42978;SDS011;28616;44.746;19.678;2023-03-31T13:22:04;7.35;;;2.00;;
42978;SDS011;28616;44.746;19.678;2023-03-31T13:24:31;7.25;;;2.42;;
42978;SDS011;28616;44.746;19.678;2023-03-31T13:26:58;6.13;;;2.38;;
42978;SDS011;28616;44.746;19.678;2023-03-31T13:29:39;7.30;;;1.75;;
42978;SDS011;28616;44.746;19.678;2023-03-31T13:32:14;7.78;;;2.90;;
42978;SDS011;28616;44.746;19.678;2023-03-31T13:34:48;7.40;;;2.70;;
42978;SDS011;28616;44.746;19.678;2023-03-31T13:42:50;7.78;;;2.88;;
42978;SDS011;28616;44.746;19.678;2023-03-31T13:47:56;5.68;;;2.30;;
42978;SDS011;28616;44.746;19.678;2023-03-31T13:50:31;4.20;;;2.00;;
42978;SDS011;28616;44.746;19.678;2023-03-31T13:53:25;18.70;;;5.35;;
42978;SDS011;28616;44.746;19.678;2023-03-31T13:56:00;4.22;;;1.70;;
42978;SDS011;28616;44.746;19.678;2023-03-31T14:06:36;9.32;;;1.80;;
42978;SDS011;28616;44.746;19.678;2023-03-31T14:09:07;5.15;;;1.80;;
42978;SDS011;28616;44.746;19.678;2023-03-31T14:11:41;12.27;;;2.80;;
42978;SDS011;28616;44.746;19.678;2023-03-31T14:14:11;13.95;;;6.47;;
42978;SDS011;28616;44.746;19.678;2023-03-31T14:21:42;6.82;;;2.50;;
42978;SDS011;28616;44.746;19.678;2023-03-31T14:26:50;9.88;;;3.45;;
42978;SDS011;28616;44.746;19.678;2023-03-31T14:29:23;8.43;;;2.33;;
42978;SDS011;28616;44.746;19.678;2023-03-31T14:37:02;15.13;;;7.32;;
42978;SDS011;28616;44.746;19.678;2023-03-31T14:39:51;6.93;;;2.60;;
42978;SDS011;28616;44.746;19.678;2023-03-31T14:42:21;6.55;;;2.33;;
42978;SDS011;28616;44.746;19.678;2023-03-31T14:44:54;11.90;;;5.80;;
42978;SDS011;28616;44.746;19.678;2023-03-31T14:47:27;7.18;;;2.55;;
42978;SDS011;28616;44.746;19.678;2023-03-31T14:50:00;13.95;;;6.95;;
42978;SDS011;28616;44.746;19.678;2023-03-31T14:52:33;14.13;;;2.60;;
42978;SDS011;28616;44.746;19.678;2023-03-31T14:54:59;11.35;;;4.88;;
42978;SDS011;28616;44.746;19.678;2023-03-31T14:57:29;9.02;;;2.65;;
42978;SDS011;28616;44.746;19.678;2023-03-31T15:00:00;15.98;;;4.95;;
42978;SDS011;28616;44.746;19.678;2023-03-31T15:02:32;33.25;;;12.68;;
42978;SDS011;28616;44.746;19.678;2023-03-31T15:05:01;8.65;;;3.53;;
42978;SDS011;28616;44.746;19.678;2023-03-31T15:07:32;23.45;;;10.02;;
42978;SDS011;28616;44.746;19.678;2023-03-31T15:09:58;13.18;;;3.90;;
42978;SDS011;28616;44.746;19.678;2023-03-31T15:12:25;16.08;;;5.03;;
42978;SDS011;28616;44.746;19.678;2023-03-31T15:14:54;10.98;;;3.70;;
42978;SDS011;28616;44.746;19.678;2023-03-31T15:17:23;7.45;;;3.40;;
42978;SDS011;28616;44.746;19.678;2023-03-31T15:19:53;16.48;;;5.38;;
42978;SDS011;28616;44.746;19.678;2023-03-31T15:22:21;10.15;;;4.00;;
42978;SDS011;28616;44.746;19.678;2023-03-31T15:24:48;7.32;;;2.67;;
42978;SDS011;28616;44.746;19.678;2023-03-31T15:27:16;29.98;;;4.53;;
42978;SDS011;28616;44.746;19.678;2023-03-31T15:34:51;13.70;;;4.10;;
42978;SDS011;28616;44.746;19.678;2023-03-31T15:37:25;16.40;;;5.50;;
42978;SDS011;28616;44.746;19.678;2023-03-31T15:39:55;28.02;;;10.65;;
42978;SDS011;28616;44.746;19.678;2023-03-31T15:42:25;11.38;;;3.90;;
42978;SDS011;28616;44.746;19.678;2023-03-31T15:44:56;11.35;;;3.75;;
42978;SDS011;28616;44.746;19.678;2023-03-31T15:47:55;27.27;;;9.90;;
42978;SDS011;28616;44.746;19.678;2023-03-31T15:50:25;24.23;;;10.35;;
42978;SDS011;28616;44.746;19.678;2023-03-31T15:52:54;16.35;;;7.63;;
42978;SDS011;28616;44.746;19.678;2023-03-31T15:57:48;20.85;;;7.07;;
42978;SDS011;28616;44.746;19.678;2023-03-31T16:01:00;10.23;;;4.35;;
42978;SDS011;28616;44.746;19.678;2023-03-31T16:03:11;10.60;;;4.72;;
42978;SDS011;28616;44.746;19.678;2023-03-31T16:05:48;10.77;;;3.40;;
42978;SDS011;28616;44.746;19.678;2023-03-31T16:08:29;84.97;;;37.65;;
42978;SDS011;28616;44.746;19.678;2023-03-31T16:11:08;28.25;;;11.32;;
42978;SDS011;28616;44.746;19.678;2023-03-31T16:13:39;37.45;;;15.98;;
42978;SDS011;28616;44.746;19.678;2023-03-31T16:16:11;23.92;;;9.32;;
42978;SDS011;28616;44.746;19.678;2023-03-31T16:18:44;11.70;;;4.45;;
42978;SDS011;28616;44.746;19.678;2023-03-31T16:21:19;35.67;;;12.20;;
42978;SDS011;28616;44.746;19.678;2023-03-31T16:23:49;19.20;;;7.60;;
42978;SDS011;28616;44.746;19.678;2023-03-31T16:26:20;16.95;;;7.47;;
42978;SDS011;28616;44.746;19.678;2023-03-31T16:28:51;27.23;;;12.15;;
42978;SDS011;28616;44.746;19.678;2023-03-31T16:34:05;60.63;;;29.40;;
42978;SDS011;28616;44.746;19.678;2023-03-31T16:36:32;23.58;;;10.50;;
42978;SDS011;28616;44.746;19.678;2023-03-31T16:38:58;31.55;;;11.25;;
42978;SDS011;28616;44.746;19.678;2023-03-31T16:41:26;19.25;;;7.22;;
42978;SDS011;28616;44.746;19.678;2023-03-31T16:43:53;19.17;;;6.38;;
42978;SDS011;28616;44.746;19.678;2023-03-31T16:46:20;16.95;;;6.38;;
42978;SDS011;28616;44.746;19.678;2023-03-31T16:48:46;29.38;;;11.70;;
42978;SDS011;28616;44.746;19.678;2023-03-31T16:51:12;29.20;;;10.57;;
42978;SDS011;28616;44.746;19.678;2023-03-31T16:53:38;32.45;;;15.45;;
42978;SDS011;28616;44.746;19.678;2023-03-31T16:56:04;39.63;;;23.02;;
42978;SDS011;28616;44.746;19.678;2023-03-31T16:58:32;37.90;;;18.08;;
42978;SDS011;28616;44.746;19.678;2023-03-31T17:00:59;45.05;;;19.27;;
42978;SDS011;28616;44.746;19.678;2023-03-31T17:03:25;46.63;;;18.85;;
42978;SDS011;28616;44.746;19.678;2023-03-31T17:05:52;46.20;;;19.88;;
42978;SDS011;28616;44.746;19.678;2023-03-31T17:08:20;39.35;;;21.75;;
42978;SDS011;28616;44.746;19.678;2023-03-31T17:10:52;40.67;;;19.98;;
42978;SDS011;28616;44.746;19.678;2023-03-31T17:13:25;39.30;;;20.02;;
42978;SDS011;28616;44.746;19.678;2023-03-31T17:15:51;31.33;;;15.15;;
42978;SDS011;28616;44.746;19.678;2023-03-31T17:18:17;36.83;;;16.30;;
42978;SDS011;28616;44.746;19.678;2023-03-31T17:20:43;36.53;;;17.23;;
42978;SDS011;28616;44.746;19.678;2023-03-31T17:23:09;36.15;;;20.27;;
42978;SDS011;28616;44.746;19.678;2023-03-31T17:25:35;31.30;;;19.02;;
42978;SDS011;28616;44.746;19.678;2023-03-31T17:28:02;38.20;;;21.60;;
42978;SDS011;28616;44.746;19.678;2023-03-31T17:30:29;34.63;;;19.08;;
42978;SDS011;28616;44.746;19.678;2023-03-31T17:32:56;39.40;;;18.80;;